createdAt,value
2018-07-19T00:01:22.567Z,14.40
2018-07-19T00:03:51.369Z,14.40
2018-07-19T00:06:19.657Z,14.30
2018-07-19T00:08:48.064Z,14.30
2018-07-19T00:11:16.511Z,14.30
2018-07-19T00:13:45.065Z,14.30
2018-07-19T00:16:13.561Z,14.30
2018-07-19T00:18:42.454Z,14.30
2018-07-19T00:21:11.322Z,14.20
2018-07-19T00:23:39.656Z,14.20
2018-07-19T00:26:08.078Z,14.20
2018-07-19T00:28:36.307Z,14.20
2018-07-19T00:31:04.469Z,14.20
2018-07-19T00:33:32.771Z,14.10
2018-07-19T00:36:01.087Z,14.10
2018-07-19T00:38:29.568Z,14.10
2018-07-19T00:40:57.869Z,14.10
2018-07-19T00:43:26.374Z,14.10
2018-07-19T00:45:54.666Z,14.10
2018-07-19T00:48:23.062Z,14.10
2018-07-19T00:50:51.575Z,14.10
2018-07-19T00:53:19.878Z,14.10
2018-07-19T00:55:48.046Z,14.10
2018-07-19T00:58:16.361Z,14.10
2018-07-19T01:00:44.732Z,14.10
2018-07-19T01:05:41.252Z,14.00
2018-07-19T01:08:09.394Z,14.00
2018-07-19T01:10:37.542Z,14.00
2018-07-19T01:13:06.549Z,13.90
2018-07-19T01:15:35.683Z,13.90
2018-07-19T01:18:04.066Z,13.90
2018-07-19T01:20:32.458Z,13.90
2018-07-19T01:23:00.755Z,13.80
2018-07-19T01:25:29.030Z,13.80
2018-07-19T01:27:57.668Z,13.70
2018-07-19T01:30:25.945Z,13.70
2018-07-19T01:32:54.457Z,13.70
2018-07-19T01:35:22.947Z,13.60
2018-07-19T01:37:51.992Z,13.60
2018-07-19T01:40:20.389Z,13.50
2018-07-19T01:42:48.679Z,13.50
2018-07-19T01:45:16.960Z,13.50
2018-07-19T01:47:45.250Z,13.40
2018-07-19T01:50:14.273Z,13.40
2018-07-19T01:52:42.664Z,13.30
2018-07-19T01:55:10.960Z,13.30
2018-07-19T02:02:35.542Z,13.20
2018-07-19T02:07:32.242Z,13.20
2018-07-19T02:14:56.923Z,13.10
2018-07-19T02:19:53.885Z,13.10
2018-07-19T02:22:22.159Z,13.10
2018-07-19T02:24:51.580Z,13.10
2018-07-19T02:27:19.947Z,13.10
2018-07-19T02:32:16.159Z,13.00
2018-07-19T02:34:44.767Z,13.00
2018-07-19T02:37:13.047Z,12.90
2018-07-19T02:39:41.443Z,12.90
2018-07-19T02:42:09.851Z,12.90
2018-07-19T02:44:38.356Z,12.80
2018-07-19T02:47:06.742Z,12.80
2018-07-19T02:52:03.157Z,12.80
2018-07-19T02:54:31.628Z,12.80
2018-07-19T02:59:27.874Z,12.70
2018-07-19T03:01:56.330Z,12.70
2018-07-19T03:04:25.120Z,12.70
2018-07-19T03:09:21.536Z,12.70
2018-07-19T03:11:49.748Z,12.60
2018-07-19T03:14:18.037Z,12.60
2018-07-19T03:16:46.516Z,12.60
2018-07-19T03:19:14.726Z,12.70
2018-07-19T03:21:43.016Z,12.60
2018-07-19T03:24:11.531Z,12.70
2018-07-19T03:26:39.831Z,12.60
2018-07-19T03:29:09.621Z,12.60
2018-07-19T03:31:38.267Z,12.70
2018-07-19T03:34:07.782Z,12.70
2018-07-19T03:36:36.067Z,12.70
2018-07-19T03:39:06.117Z,12.70
2018-07-19T03:41:34.536Z,12.70
2018-07-19T03:44:03.022Z,12.70
2018-07-19T03:46:31.542Z,12.70
2018-07-19T03:48:59.920Z,12.70
2018-07-19T03:51:28.310Z,12.80
2018-07-19T03:53:56.731Z,12.90
2018-07-19T03:56:25.016Z,13.00
2018-07-19T03:58:53.309Z,13.10
2018-07-19T04:01:21.824Z,13.20
2018-07-19T04:03:50.316Z,13.30
2018-07-19T04:06:18.418Z,13.40
2018-07-19T04:08:46.610Z,13.50
2018-07-19T04:11:15.130Z,13.60
2018-07-19T04:13:43.405Z,13.70
2018-07-19T04:16:11.804Z,13.90
2018-07-19T04:18:40.104Z,14.10
2018-07-19T04:21:08.468Z,14.30
2018-07-19T04:23:37.098Z,14.40
2018-07-19T04:28:33.805Z,14.70
2018-07-19T04:31:02.105Z,14.90
2018-07-19T04:33:30.507Z,15.10
2018-07-19T04:35:59.008Z,15.20
2018-07-19T04:38:27.311Z,15.20
2018-07-19T04:40:55.588Z,15.20
2018-07-19T04:43:23.786Z,15.30
2018-07-19T04:45:51.972Z,15.30
2018-07-19T04:50:48.370Z,16.90
2018-07-19T04:53:16.916Z,18.10
2018-07-19T04:55:45.034Z,19.20
2018-07-19T04:58:13.447Z,20.20
2018-07-19T05:03:10.050Z,21.90
2018-07-19T05:08:06.562Z,23.60
2018-07-19T05:10:35.427Z,24.30
2018-07-19T05:13:04.185Z,24.90
2018-07-19T05:15:32.597Z,25.40
2018-07-19T05:18:00.880Z,26.00
2018-07-19T05:20:29.271Z,26.40
2018-07-19T05:22:57.419Z,27.00
2018-07-19T05:25:26.177Z,27.30
2018-07-19T05:27:54.460Z,27.50
2018-07-19T05:30:22.869Z,27.60
2018-07-19T05:32:51.166Z,27.80
2018-07-19T05:35:19.362Z,28.00
2018-07-19T05:37:47.769Z,28.00
2018-07-19T05:40:15.947Z,28.10
2018-07-19T05:45:12.246Z,26.90
2018-07-19T05:47:40.838Z,25.80
2018-07-19T05:52:37.313Z,23.90
2018-07-19T05:55:05.767Z,23.20
2018-07-19T05:57:34.668Z,22.80
2018-07-19T06:00:02.982Z,23.20
2018-07-19T06:02:31.172Z,23.60
2018-07-19T06:04:59.660Z,23.50
2018-07-19T06:07:27.949Z,23.30
2018-07-19T06:09:56.467Z,23.50
2018-07-19T06:12:25.677Z,24.40
2018-07-19T06:14:54.281Z,26.00
2018-07-19T06:17:22.582Z,27.60
2018-07-19T06:19:51.015Z,29.30
2018-07-19T06:22:19.585Z,30.70
2018-07-19T06:24:47.789Z,31.80
2018-07-19T06:27:16.291Z,32.90
2018-07-19T06:29:44.553Z,33.80
2018-07-19T06:32:12.960Z,34.70
2018-07-19T06:34:41.803Z,35.60
2018-07-19T06:37:09.960Z,36.20
2018-07-19T06:42:06.551Z,37.60
2018-07-19T06:44:35.074Z,38.20
2018-07-19T06:47:03.787Z,38.90
2018-07-19T06:49:32.230Z,39.40
2018-07-19T06:52:00.676Z,39.80
2018-07-19T06:54:28.962Z,40.00
2018-07-19T06:59:25.674Z,40.10
2018-07-19T07:01:53.956Z,40.40
2018-07-19T07:04:22.516Z,40.70
2018-07-19T07:06:50.980Z,41.10
2018-07-19T07:09:19.367Z,41.60
2018-07-19T07:11:47.660Z,41.90
2018-07-19T07:16:43.852Z,42.20
2018-07-19T07:19:12.365Z,42.40
2018-07-19T07:21:40.867Z,42.60
2018-07-19T07:24:09.271Z,42.90
2018-07-19T07:26:37.871Z,43.20
2018-07-19T07:29:06.382Z,43.50
2018-07-19T07:31:34.869Z,43.80
2018-07-19T07:34:03.419Z,44.00
2018-07-19T07:36:31.966Z,44.20
2018-07-19T07:39:00.506Z,44.50
2018-07-19T07:41:29.016Z,44.60
2018-07-19T07:43:57.299Z,44.70
2018-07-19T07:46:26.082Z,44.40
2018-07-19T07:48:55.904Z,44.10
2018-07-19T07:51:24.440Z,44.30
2018-07-19T07:53:54.372Z,44.20
2018-07-19T07:56:24.936Z,44.20
2018-07-19T07:58:57.482Z,44.30
2018-07-19T08:01:27.518Z,44.60
2018-07-19T08:03:58.004Z,44.70
2018-07-19T08:06:28.001Z,44.80
2018-07-19T08:08:57.774Z,45.00
2018-07-19T08:11:27.623Z,44.90
2018-07-19T08:16:27.375Z,43.30
2018-07-19T08:18:57.709Z,42.10
2018-07-19T08:21:28.257Z,41.00
2018-07-19T08:23:57.658Z,40.50
2018-07-19T08:26:27.333Z,40.20
2018-07-19T08:28:57.232Z,39.70
2018-07-19T08:31:31.277Z,38.50
2018-07-19T08:34:00.989Z,37.10
2018-07-19T08:36:30.595Z,35.90
2018-07-19T08:39:00.158Z,35.00
2018-07-19T08:41:29.850Z,34.00
2018-07-19T08:43:59.896Z,33.10
2018-07-19T08:46:29.512Z,32.30
2018-07-19T08:49:00.000Z,31.60
2018-07-19T08:53:59.081Z,30.40
2018-07-19T08:58:57.776Z,29.50
2018-07-19T09:01:27.929Z,29.10
2018-07-19T09:03:57.193Z,28.60
2018-07-19T09:08:56.998Z,28.00
2018-07-19T09:11:27.291Z,27.70
2018-07-19T09:13:57.288Z,27.40
2018-07-19T09:16:26.641Z,27.10
2018-07-19T09:21:26.340Z,26.90
2018-07-19T09:23:56.169Z,27.00
2018-07-19T09:26:26.308Z,27.20
2018-07-19T09:28:56.143Z,27.20
2018-07-19T09:31:25.964Z,27.10
2018-07-19T09:33:56.564Z,27.00
2018-07-19T09:38:56.067Z,26.80
2018-07-19T09:41:26.089Z,26.80
2018-07-19T09:43:55.876Z,27.10
2018-07-19T09:46:25.740Z,27.30
2018-07-19T09:48:55.556Z,27.40
2018-07-19T09:51:26.063Z,27.40
2018-07-19T09:53:55.709Z,27.40
2018-07-19T09:56:26.049Z,27.40
2018-07-19T09:58:56.061Z,27.40
2018-07-19T10:01:25.749Z,27.30
2018-07-19T10:03:55.429Z,27.10
2018-07-19T10:06:25.967Z,26.80
2018-07-19T10:08:55.607Z,26.70
2018-07-19T10:11:25.455Z,26.70
2018-07-19T10:13:54.995Z,26.50
2018-07-19T10:16:23.360Z,26.30
2018-07-19T10:18:51.742Z,26.30
2018-07-19T10:21:20.260Z,26.30
2018-07-19T10:23:48.526Z,26.30
2018-07-19T10:26:17.121Z,26.50
2018-07-19T10:31:14.224Z,26.60
2018-07-19T10:36:10.846Z,26.80
2018-07-19T10:38:39.231Z,26.90
2018-07-19T10:43:35.919Z,27.10
2018-07-19T10:48:32.559Z,27.20
2018-07-19T10:51:00.842Z,27.20
2018-07-19T10:53:29.101Z,27.10
2018-07-19T10:55:58.659Z,27.10
2018-07-19T10:58:27.163Z,27.10
2018-07-19T11:00:55.677Z,27.30
2018-07-19T11:03:24.161Z,27.30
2018-07-19T11:05:52.549Z,27.20
2018-07-19T11:10:48.939Z,26.80
2018-07-19T11:13:17.300Z,26.50
2018-07-19T11:15:46.520Z,26.30
2018-07-19T11:18:15.119Z,26.10
2018-07-19T11:20:43.349Z,26.00
2018-07-19T11:23:11.615Z,25.80
2018-07-19T11:25:39.839Z,25.70
2018-07-19T11:28:08.048Z,25.70
2018-07-19T11:33:04.766Z,26.10
2018-07-19T11:35:33.293Z,26.30
2018-07-19T11:38:01.658Z,26.50
2018-07-19T11:40:30.445Z,26.60
2018-07-19T11:42:58.972Z,26.60
2018-07-19T11:45:27.297Z,26.60
2018-07-19T11:47:55.859Z,26.40
2018-07-19T11:52:51.835Z,25.80
2018-07-19T11:55:20.050Z,25.70
2018-07-19T12:02:44.512Z,25.80
2018-07-19T12:05:13.009Z,25.90
2018-07-19T12:10:09.626Z,26.10
2018-07-19T12:12:37.920Z,26.10
2018-07-19T12:15:06.311Z,26.00
2018-07-19T12:20:03.118Z,26.10
2018-07-19T12:22:31.728Z,26.10
2018-07-19T12:25:00.109Z,26.20
2018-07-19T12:27:28.388Z,26.30
2018-07-19T12:29:57.142Z,26.40
2018-07-19T12:32:25.424Z,26.60
2018-07-19T12:37:21.807Z,26.60
2018-07-19T12:42:18.395Z,26.60
2018-07-19T12:44:47.191Z,26.70
2018-07-19T12:47:15.599Z,26.80
2018-07-19T12:49:43.898Z,26.70
2018-07-19T12:52:12.868Z,26.60
2018-07-19T12:54:41.743Z,26.50
2018-07-19T12:57:10.032Z,26.40
2018-07-19T12:59:38.353Z,26.60
2018-07-19T13:02:06.691Z,26.60
2018-07-19T13:04:34.906Z,26.60
2018-07-19T13:07:03.191Z,26.50
2018-07-19T13:09:31.430Z,26.40
2018-07-19T13:14:27.894Z,26.10
2018-07-19T13:16:56.388Z,26.00
2018-07-19T13:19:24.808Z,26.10
2018-07-19T13:24:21.304Z,26.50
2018-07-19T13:29:17.902Z,26.50
2018-07-19T13:36:42.328Z,25.80
2018-07-19T13:39:10.761Z,25.70
2018-07-19T13:44:07.375Z,26.00
2018-07-19T13:49:03.643Z,26.30
2018-07-19T13:51:31.869Z,26.40
2018-07-19T13:54:44.151Z,26.60
2018-07-19T13:57:12.663Z,26.80
2018-07-19T13:59:41.127Z,26.70
2018-07-19T14:02:09.865Z,26.60
2018-07-19T14:04:38.881Z,26.50
2018-07-19T14:07:07.234Z,26.40
2018-07-19T14:12:04.267Z,26.30
2018-07-19T14:14:32.853Z,26.30
2018-07-19T14:17:01.478Z,26.30
2018-07-19T14:19:29.825Z,26.20
2018-07-19T14:21:58.967Z,26.00
2018-07-19T14:31:52.778Z,25.90
2018-07-19T14:34:21.291Z,25.90
2018-07-19T14:39:17.878Z,25.80
2018-07-19T14:44:14.159Z,25.50
2018-07-19T14:46:42.670Z,25.40
2018-07-19T14:49:11.063Z,25.40
2018-07-19T14:51:39.466Z,25.40
2018-07-19T14:59:04.113Z,25.40
2018-07-19T15:01:32.375Z,25.50
2018-07-19T15:04:00.899Z,25.60
2018-07-19T15:06:30.387Z,25.60
2018-07-19T15:08:58.665Z,25.50
2018-07-19T15:11:27.084Z,25.50
2018-07-19T15:13:55.981Z,25.40
2018-07-19T15:16:24.390Z,25.30
2018-07-19T15:18:52.664Z,25.30
2018-07-19T15:21:21.038Z,25.20
2018-07-19T15:23:49.395Z,25.20
2018-07-19T15:26:17.797Z,25.30
2018-07-19T15:28:46.506Z,25.30
2018-07-19T15:31:14.833Z,25.30
2018-07-19T15:33:43.273Z,25.40
2018-07-19T15:36:11.775Z,25.50
2018-07-19T15:38:40.157Z,25.60
2018-07-19T15:41:08.713Z,25.70
2018-07-19T15:43:37.205Z,25.70
2018-07-19T15:53:30.115Z,25.50
2018-07-19T15:55:58.575Z,25.20
2018-07-19T16:03:23.469Z,25.20
2018-07-19T16:05:51.745Z,25.20
2018-07-19T16:08:19.840Z,25.30
2018-07-19T16:10:48.097Z,25.30
2018-07-19T16:13:16.364Z,25.40
2018-07-19T16:18:13.167Z,25.40
2018-07-19T16:23:10.264Z,25.50
2018-07-19T16:28:06.864Z,25.60
2018-07-19T16:33:03.144Z,25.50
2018-07-19T16:40:27.724Z,25.40
2018-07-19T16:42:56.494Z,25.30
2018-07-19T16:45:24.946Z,25.20
2018-07-19T16:47:53.533Z,25.20
2018-07-19T16:50:21.749Z,25.10
2018-07-19T16:55:18.397Z,25.00
2018-07-19T16:57:46.947Z,24.90
2018-07-19T17:00:15.337Z,24.90
2018-07-19T17:05:12.967Z,24.80
2018-07-19T17:07:41.366Z,24.80
2018-07-19T17:10:09.747Z,24.80
2018-07-19T17:12:38.164Z,24.70
2018-07-19T17:15:07.072Z,24.60
2018-07-19T17:17:36.009Z,24.50
2018-07-19T17:20:04.515Z,24.50
2018-07-19T17:22:32.968Z,24.40
2018-07-19T17:25:01.125Z,24.30
2018-07-19T17:27:29.492Z,24.20
2018-07-19T17:29:58.421Z,24.10
2018-07-19T17:32:27.248Z,24.00
2018-07-19T17:34:56.047Z,24.00
2018-07-19T17:37:24.311Z,23.90
2018-07-19T17:39:52.801Z,23.80
2018-07-19T17:44:49.169Z,23.60
2018-07-19T17:47:17.597Z,23.60
2018-07-19T17:49:45.981Z,23.50
2018-07-19T17:52:15.013Z,23.50
2018-07-19T17:54:43.828Z,23.40
2018-07-19T17:57:12.182Z,23.30
2018-07-19T17:59:41.215Z,23.30
2018-07-19T18:02:09.746Z,23.20
2018-07-19T18:04:38.338Z,23.10
2018-07-19T18:07:06.950Z,23.10
2018-07-19T18:09:36.064Z,23.00
2018-07-19T18:12:04.757Z,22.90
2018-07-19T18:17:01.339Z,22.80
2018-07-19T18:29:22.043Z,22.30
2018-07-19T18:31:50.746Z,22.20
2018-07-19T18:34:19.339Z,22.10
2018-07-19T18:39:16.554Z,21.90
2018-07-19T18:41:44.951Z,21.80
2018-07-19T18:44:13.425Z,21.70
2018-07-19T18:46:42.021Z,21.50
2018-07-19T18:49:10.439Z,21.40
2018-07-19T18:54:08.023Z,21.10
2018-07-19T18:56:36.445Z,21.00
2018-07-19T18:59:04.844Z,20.80
2018-07-19T19:01:33.961Z,20.70
2018-07-19T19:04:02.246Z,20.60
2018-07-19T19:06:30.570Z,20.50
2018-07-19T19:08:58.878Z,20.40
2018-07-19T19:11:27.686Z,20.30
2018-07-19T19:13:56.733Z,20.20
2018-07-19T19:16:25.365Z,20.00
2018-07-19T19:18:53.922Z,20.00
2018-07-19T19:21:22.410Z,19.90
2018-07-19T19:23:51.136Z,19.90
2018-07-19T19:26:19.722Z,19.80
2018-07-19T19:28:48.217Z,19.80
2018-07-19T19:33:45.549Z,19.70
2018-07-19T19:36:15.017Z,19.70
2018-07-19T19:38:43.255Z,19.60
2018-07-19T19:43:41.370Z,19.50
2018-07-19T19:48:39.704Z,19.30
2018-07-19T19:53:36.289Z,19.30
2018-07-19T19:56:04.660Z,19.20
2018-07-19T19:58:33.423Z,19.10
2018-07-19T20:01:01.792Z,19.10
2018-07-19T20:03:32.432Z,19.10
2018-07-19T20:06:00.570Z,19.00
2018-07-19T20:08:28.858Z,18.90
2018-07-19T20:13:26.878Z,18.80
2018-07-19T20:15:55.481Z,18.80
2018-07-19T20:20:51.839Z,18.70
2018-07-19T20:23:20.263Z,18.60
2018-07-19T20:25:48.658Z,18.50
2018-07-19T20:28:17.461Z,18.50
2018-07-19T20:30:46.079Z,18.40
2018-07-19T20:33:14.593Z,18.40
2018-07-19T20:38:00.011Z,18.40
2018-07-19T20:40:28.427Z,18.30
2018-07-19T20:45:24.920Z,18.20
2018-07-19T20:52:50.126Z,18.10
2018-07-19T20:55:18.636Z,18.00
2018-07-19T20:57:47.114Z,17.90
2018-07-19T21:00:15.640Z,17.90
2018-07-19T21:02:43.933Z,17.80
2018-07-19T21:05:12.127Z,17.70
2018-07-19T21:07:40.549Z,17.70
2018-07-19T21:10:08.948Z,17.70
2018-07-19T21:15:06.170Z,17.60
2018-07-19T21:17:34.603Z,17.50
2018-07-19T21:20:02.929Z,17.50
2018-07-19T21:27:27.387Z,17.20
2018-07-19T21:29:55.763Z,17.10
2018-07-19T21:32:24.807Z,17.10
2018-07-19T21:34:53.111Z,17.00
2018-07-19T21:37:22.023Z,16.90
2018-07-19T21:42:18.201Z,16.80
2018-07-19T21:44:46.713Z,16.80
2018-07-19T21:47:15.309Z,16.70
2018-07-19T21:52:11.706Z,16.70
2018-07-19T21:54:39.990Z,16.60
2018-07-19T21:57:08.525Z,16.50
2018-07-19T21:59:36.600Z,16.40
2018-07-19T22:02:05.022Z,16.40
2018-07-19T22:04:33.612Z,16.40
2018-07-19T22:07:01.904Z,16.30
2018-07-19T22:09:30.368Z,16.30
2018-07-19T22:11:58.657Z,16.30
2018-07-19T22:14:27.159Z,16.20
2018-07-19T22:16:55.439Z,16.20
2018-07-19T22:21:51.992Z,16.10
2018-07-19T22:24:20.197Z,16.10
2018-07-19T22:26:48.662Z,16.10
2018-07-19T22:29:16.885Z,16.00
2018-07-19T22:31:45.375Z,16.00
2018-07-19T22:36:43.205Z,15.90
2018-07-19T22:39:11.939Z,15.80
2018-07-19T22:41:40.838Z,15.80
2018-07-19T22:44:09.120Z,15.70
2018-07-19T22:46:37.510Z,15.70
2018-07-19T22:49:05.821Z,15.70
2018-07-19T22:51:34.236Z,15.70
2018-07-19T22:56:30.815Z,15.60
2018-07-19T23:01:27.227Z,15.60
2018-07-19T23:03:56.147Z,15.60
2018-07-19T23:06:24.495Z,15.50
2018-07-19T23:08:53.704Z,15.50
2018-07-19T23:11:22.247Z,15.50
2018-07-19T23:13:50.520Z,15.50
2018-07-19T23:16:18.816Z,15.40
2018-07-19T23:18:47.194Z,15.40
2018-07-19T23:21:15.833Z,15.40
2018-07-19T23:23:44.145Z,15.30
2018-07-19T23:26:12.415Z,15.30
2018-07-19T23:28:40.599Z,15.20
2018-07-19T23:31:10.113Z,15.20
2018-07-19T23:33:38.649Z,15.20
2018-07-19T23:36:10.668Z,15.10
2018-07-19T23:38:50.948Z,15.10
2018-07-19T23:41:27.218Z,15.10
2018-07-19T23:44:00.915Z,15.10
2018-07-19T23:49:12.616Z,15.00
2018-07-19T23:51:41.022Z,15.00
2018-07-19T23:56:38.554Z,14.90
2018-07-19T23:59:08.894Z,14.90
